METAR Data
IDs: Format: Raw Decoded Include TAF

Data at: 1006 UTC 18 Jan 2022

KAKO 180853Z AUTO 22009KT 10SM CLR 02/M08 A2980 RMK AO2 SLP081 T00171078 58014 $
KAKO 180753Z AUTO 23009KT 10SM CLR 01/M08 A2982 RMK AO2 SLP089 T00111078 $
KAKO 180653Z AUTO 22010KT 10SM CLR 03/M08 A2984 RMK AO2 SLP095 T00281078 401391028 $
KAKO 180553Z AUTO 22008KT 10SM CLR 02/M08 A2985 RMK AO2 SLP106 T00221078 10067 20017 56010 $
KAKO 180453Z AUTO 21008KT 10SM BKN110 03/M07 A2986 RMK AO2 SLP116 T00331072 $
KAKO 180353Z AUTO 20007KT 10SM CLR 03/M07 A2987 RMK AO2 SLP127 T00281072 $
KAKO 180253Z AUTO 20008KT 10SM CLR 04/M07 A2989 RMK AO2 SLP132 T00391072 53009 $
KAKO 180153Z AUTO 19007KT 10SM CLR 04/M08 A2988 RMK AO2 SLP132 T00391083 $
KAKO 180053Z AUTO 05004KT 10SM CLR 06/M09 A2986 RMK AO2 SLP119 T00611089 $
KAKO 172353Z AUTO 04008KT 10SM 06/M09 A2986 RMK AO2 SLP118 T00611089 10139 20061 $
KAKO 172253Z AUTO 36010KT 10SM CLR 13/M09 A2987 RMK AO2 SLP108 T01281089 $
KAKO 172153Z AUTO 34009KT 10SM CLR 14/M08 A2988 RMK AO2 SLP114 T01391078 $
KAKO 172053Z AUTO 34007KT 10SM CLR 13/M08 A2988 RMK AO2 SLP114 T01331078 56019 $
KAKO 171953Z AUTO 34008KT 10SM CLR 13/M08 A2988 RMK AO2 SLP116 T01331083 $
KAKO 171853Z AUTO 31008KT 10SM CLR 11/M09 A2991 RMK AO2 SLP130 T01111094 $
KAKO 171753Z AUTO 29007KT 10SM CLR 08/M07 A2995 RMK AO2 SLP150 T00831072 10083 21017 50005 $
KAKO 171653Z AUTO 27010KT 10SM CLR 05/M08 A2995 RMK AO2 SLP158 T00501078 $
KAKO 171553Z AUTO 27015KT 10SM CLR 02/M08 A2994 RMK AO2 SLP158 T00171078 $
KAKO 171453Z AUTO 26012KT 10SM CLR 00/M08 A2993 RMK AO2 SLP160 T00001078 $
KAKO 171353Z AUTO 25012KT 10SM CLR M02/M08 A2992 RMK AO2 SLP155 T10171083 $
KAKO 171253Z AUTO 24012KT 10SM CLR M01/M08 A2992 RMK AO2 SLP153 T10111078 $
KAKO 171053Z AUTO 23014KT 10SM CLR M01/M07 A2994 RMK AO2 SLP147 T10061072
KAKO 170953Z AUTO 20010KT 10SM CLR M02/M07 A2997 RMK AO2 SLP160 T10171072
KAKO 170853Z AUTO 21010KT 10SM CLR M01/M07 A3000 RMK AO2 SLP165 T10111067 58025
KAKO 170753Z AUTO 21011KT 10SM CLR M02/M07 A3002 RMK AO2 SLP175 T10221072
KAKO 170653Z AUTO 21009KT 10SM CLR M03/M07 A3006 RMK AO2 SLP189 T10281072 400941061
KAKO 170553Z AUTO 21008KT 10SM CLR M03/M07 A3008 RMK AO2 SLP198 T10281072 10028 21050 56012
KAKO 170453Z AUTO 21008KT 10SM CLR M03/M07 A3009 RMK AO2 SLP205 T10281072
KAKO 170353Z AUTO 21007KT 10SM CLR M02/M07 A3011 RMK AO2 SLP217 T10221072
KAKO 170253Z AUTO 16003KT 10SM CLR M02/M08 A3012 RMK AO2 SLP229 T10221078 51012
KAKO 170153Z AUTO 00000KT 10SM CLR 01/M07 A3012 RMK AO2 SLP229 T00061067
KAKO 170053Z AUTO 00000KT 10SM CLR 01/M07 A3010 RMK AO2 SLP223 T00061067
KAKO 162353Z AUTO 34005KT 10SM CLR 03/M07 A3008 RMK AO2 SLP212 T00281067 10094 20028 50007
KAKO 162253Z AUTO 36012KT 10SM CLR 07/M06 A3010 RMK AO2 SLP208 T00671061